AirNav   Air Wisconsin Up To $57,000 Bonus
 
 348 users online  

NC43 Bear Pen Airport
Supply, North Carolina, USA

GOING TO SUPPLY?


FAA INFORMATION EFFECTIVE 26 MARCH 2020

Location

FAA Identifier: NC43
Lat/Long: 34-07-30.6120N 078-20-17.0090W
34-07.510200N 078-20.283483W
34.1251700,-78.3380581
(estimated)
Elevation: 63 ft. / 19.2 m (surveyed)
Variation: 07W (1985)
From city: 8 miles NW of SUPPLY, NC
Time zone: UTC -4 (UTC -5 during Standard Time)
Zip code: 28462

Airport Operations

Airport use: Private use. Permission required prior to landing
Control tower: no
ARTCC: WASHINGTON CENTER
FSS: RALEIGH FLIGHT SERVICE STATION
Attendance: IREG
Wind indicator: yes
Segmented circle: no

Airport Communications

WX AWOS-3P at SUT (18 nm SE): 124.175 (910-457-1710)

Nearby radio navigation aids

VOR radial/distance  VOR name  Freq  Var
ILMr246/26.7WILMINGTON VORTAC117.0007W
CREr049/26.8GRAND STRAND VORTAC114.4003W

 
NDB name  Hdg/Dist  Freq  Var  ID
CAROLINA BEACH282/18.721609WCLB -.-. .-.. -...
CAMP123/20.622707WCPC -.-. .--. -.-.
ELIZABETHTOWN168/25.839808WTGQ - --. --.-

Airport Services

Airframe service: NONE
Powerplant service: NONE

Runway Information

Runway 6/24

Dimensions: 6000 x 150 ft. / 1829 x 46 m
Surface: turf
RUNWAY 6  RUNWAY 24
Traffic pattern: leftleft

Runway 18/36

Dimensions: 6000 x 200 ft. / 1829 x 61 m
Surface: turf
RUNWAY 18  RUNWAY 36
Traffic pattern: leftleft

Airport Ownership and Management from official FAA records

Ownership: Publicly-owned
Owner: NORTH CAROLINA FOREST SERVICE
2704-C EXCHANGE DRIVE
WILMINGTON, NC 28405
Manager: NORTH CAROLINA FOREST SERVICE
1413 CHADBOURN HWY
WHITEVILLE, NC 28472
Phone 910-642-5093

Additional Remarks

FACILITY USED BY NC FOREST SVC FOR FIRE CONTROL.
NOT MAINTAINED DURING OFF SEASON; USE NOT RECOMMENDED DURING FIRE SEASON.
FOR CD CTC WASHINGTON ARTCC AT 703-771-3587.

Instrument Procedures

There are no published instrument procedures at NC43.

Some nearby airports with instrument procedures:

KSUT - Cape Fear Regional Jetport/Howie Franklin Field Airport (18 nm SE)
KCPC - Columbus County Municipal Airport (21 nm NW)
KILM - Wilmington International Airport (23 nm E)
5J9 - Twin City Airport (26 nm W)
KCRE - Grand Strand Airport (27 nm SW)
 
Loc | Ops | Rwys | IFR | FBO | Links
Com | Nav | Svcs | Stats | Notes
Area around NC43 (Bear Pen Airport)
 
Road maps at: MapQuest Bing Google
 
Aerial photo
No photo
 
Sectional chart

 
Airport distance calculator
Flying to Bear Pen Airport? Find the distance to fly.

From to NC43

Sunrise and sunset
Times for 31-Mar-2020
 Local
(UTC-4)
 Zulu
(UTC)
Morning civil twilight06:3710:37
Sunrise07:0211:02
Sunset19:3323:33
Evening civil twilight19:5823:58

Current date and time
Zulu (UTC)  31-Mar-2020 07:20:48
Local (UTC-4)  31-Mar-2020 03:20:48
 
METAR
KSUT 
17nm SE 
310655Z AUTO 00000KT 10SM CLR 17/15 A2989 RMK AO2 T01700152
KCPC 
21nm NW 
310655Z AUTO 00000KT 10SM CLR 16/13 A2990 RMK AO2 T01610126
KILM 
23nm E 
310653Z AUTO 00000KT 10SM CLR 18/12 A2989 RMK AO2 SLP122 T01780117 TSNO
KCRE 
26nm SW 
310653Z AUTO 00000KT 10SM CLR 17/13 A2988 RMK AO1 SLP120 T01670133
KEYF 
31nm NW 
310655Z AUTO 31004KT 10SM CLR 18/07 A2991 RMK AO2 T01760074
TAF
KILM 
23nm E 
310539Z 3106/0106 04003KT P6SM OVC150 FM311600 06008KT P6SM VCSH OVC150 FM311800 08010KT 6SM -SHRA BR OVC040 FM312300 06013KT 5SM -SHRA BR OVC020 FM010000 06013KT 4SM SHRA BR OVC009 FM010500 02012G20KT 6SM -SHRA BR OVC010
KCRE 
26nm SW 
310539Z 3106/0106 23003KT P6SM BKN200 FM311500 05008KT P6SM VCSH OVC150 FM312000 09013KT 6SM SHRA BR OVC050 FM312100 08013KT 6SM SHRA BR OVC025 FM312300 07013KT 5SM SHRA BR OVC015 FM010000 06013KT 3SM +SHRA BR OVC007 FM010300 03013G20KT 6SM -SHRA BR BKN010
NOTAMs
Click for the latest NOTAMs
NOTAMs are issued by the DoD/FAA and will open in a separate window not controlled by AirNav.

 

 
 

Would you like to see your business listed on this page?

 If your business provides an interesting product or service to pilots, flight crews, aircraft, or users of the Bear Pen Airport, you should consider listing it here.  To start the listing process, click on the button below
 
Add a business
 

Other Pages about Bear Pen Airport

Update a link
 
Copyright © AirNav, LLC. All rights reserved. Privacy Policy  Contact